Time;durP1;ratioP1;P1;durP2;ratioP2;P2;SDS_P1;SDS_P2;PMS_P1;PMS_P2;Temp;Humidity;BMP_temperature;BMP_pressure;BME280_temperature;BME280_humidity;BME280_pressure;Samples;Min_cycle;Max_cycle;Signal;HPM_P1;HPM_P2
2022/11/04 00:01:45;;;;;;;49.53;23.75;;;18.30;67.80;;;;;;5102237;27;20035;-91
2022/11/04 00:04:13;;;;;;;44.38;22.30;;;18.40;67.40;;;;;;5108856;28;20033;-89
2022/11/04 00:06:39;;;;;;;50.75;24.05;;;18.40;67.70;;;;;;5098877;28;20511;-90
2022/11/04 00:09:08;;;;;;;42.08;22.67;;;18.50;67.00;;;;;;5098709;28;20036;-91
2022/11/04 00:14:19;;;;;;;43.40;22.15;;;18.80;66.30;;;;;;5131098;27;20076;-88
2022/11/04 00:28:41;;;;;;;43.50;22.27;;;18.30;68.40;;;;;;5116600;28;20069;-89
2022/11/04 00:30:27;;;;;;;49.00;24.38;;;16.20;74.00;;;;;;5119526;27;20534;-92
2022/11/04 00:35:37;;;;;;;46.80;24.58;;;16.50;74.10;;;;;;5116196;28;20030;-91
2022/11/04 00:38:02;;;;;;;54.67;24.10;;;17.20;72.10;;;;;;5098224;28;20028;-90
2022/11/04 00:40:28;;;;;;;51.92;24.25;;;17.70;70.20;;;;;;5108598;27;21705;-86
2022/11/04 00:42:53;;;;;;;51.35;24.38;;;18.20;69.00;;;;;;5100218;28;20035;-93
2022/11/04 00:45:19;;;;;;;51.65;25.67;;;18.60;67.70;;;;;;5098111;28;20030;-92
2022/11/04 00:47:45;;;;;;;47.30;24.30;;;18.90;67.10;;;;;;5129461;27;20056;-92
2022/11/04 00:50:10;;;;;;;51.80;24.95;;;19.00;66.90;;;;;;5112500;27;20603;-83
2022/11/04 00:52:36;;;;;;;54.95;26.45;;;19.10;66.40;;;;;;5116118;27;20550;-94
2022/11/04 00:55:02;;;;;;;51.55;24.33;;;19.30;66.00;;;;;;5114005;28;20051;-86
2022/11/04 00:57:28;;;;;;;50.03;24.70;;;19.30;65.40;;;;;;5101335;28;20019;-94
2022/11/04 00:59:54;;;;;;;57.30;25.35;;;19.20;66.30;;;;;;5109655;27;20329;-91
2022/11/04 01:02:19;;;;;;;55.42;25.55;;;19.30;65.80;;;;;;5119321;27;20067;-95
2022/11/04 01:04:46;;;;;;;52.95;26.20;;;19.20;66.00;;;;;;5114354;28;20024;-90
2022/11/04 01:07:11;;;;;;;49.88;26.05;;;19.40;65.60;;;;;;5119748;27;20028;-94
2022/11/04 01:09:37;;;;;;;48.97;24.88;;;18.90;66.60;;;;;;5097931;28;20023;-94
2022/11/04 01:12:04;;;;;;;54.53;25.25;;;18.70;67.00;;;;;;5108023;28;20114;-91
2022/11/04 01:14:30;;;;;;;50.42;25.00;;;18.50;67.50;;;;;;5119149;27;20016;-94
2022/11/04 01:16:55;;;;;;;48.20;24.35;;;18.30;68.70;;;;;;5106454;27;20038;-93
2022/11/04 01:19:21;;;;;;;53.53;24.40;;;18.10;69.00;;;;;;5112706;28;20073;-87
2022/11/04 01:21:51;;;;;;;46.47;24.45;;;17.90;69.10;;;;;;5106346;27;20061;-90
2022/11/04 01:24:24;;;;;;;48.55;24.58;;;17.80;69.50;;;;;;5112624;28;20024;-92
2022/11/04 01:26:50;;;;;;;54.15;25.73;;;17.40;71.30;;;;;;5098003;28;20108;-90
2022/11/04 01:29:15;;;;;;;57.17;28.17;;;17.70;70.80;;;;;;5096848;28;20480;-83
2022/11/04 01:31:41;;;;;;;56.40;26.75;;;18.20;69.70;;;;;;5127819;27;20059;-85
2022/11/04 01:34:08;;;;;;;52.05;27.20;;;18.70;68.00;;;;;;5115229;27;20356;-81
2022/11/04 01:36:34;;;;;;;53.53;26.30;;;19.00;67.00;;;;;;5113725;28;20031;-80
2022/11/04 01:39:01;;;;;;;55.03;25.98;;;19.30;66.20;;;;;;5096280;28;20049;-85
2022/11/04 01:41:30;;;;;;;59.85;27.98;;;19.20;66.50;;;;;;5125225;27;20106;-90
2022/11/04 01:44:01;;;;;;;57.88;27.73;;;19.10;66.90;;;;;;5100996;28;20388;-88
2022/11/04 01:46:30;;;;;;;59.17;26.77;;;19.20;65.90;;;;;;5105985;27;20053;-93
2022/11/04 01:49:05;;;;;;;53.08;25.42;;;19.30;66.00;;;;;;5118350;27;20023;-91
2022/11/04 01:51:33;;;;;;;53.78;25.35;;;19.30;65.60;;;;;;5117520;27;20502;-92
2022/11/04 01:54:00;;;;;;;55.55;26.05;;;18.60;67.60;;;;;;5117778;27;20015;-91
2022/11/04 01:56:27;;;;;;;53.65;26.05;;;17.90;69.30;;;;;;5117133;28;20444;-90
2022/11/04 01:58:57;;;;;;;52.55;24.15;;;17.60;70.50;;;;;;5117748;27;20601;-95
2022/11/04 02:01:23;;;;;;;47.93;24.57;;;17.20;71.20;;;;;;5116958;27;20068;-88
2022/11/04 02:04:26;;;;;;;52.00;25.85;;;17.00;72.60;;;;;;5117185;27;20287;-90
2022/11/04 02:06:59;;;;;;;50.20;24.20;;;17.30;72.00;;;;;;5137195;27;20037;-93
2022/11/04 02:09:29;;;;;;;53.25;24.98;;;17.40;70.90;;;;;;5116802;28;20060;-81
2022/11/04 02:14:40;;;;;;;48.60;24.48;;;18.30;69.00;;;;;;5135223;28;20057;-88
2022/11/04 02:17:18;;;;;;;55.03;25.38;;;18.60;67.80;;;;;;5113259;28;20023;-88
2022/11/04 02:20:14;;;;;;;51.92;24.55;;;18.80;67.10;;;;;;5096495;28;20023;-90
2022/11/04 02:23:19;;;;;;;49.45;23.38;;;18.40;67.90;;;;;;5097125;28;20047;-90
2022/11/04 02:26:25;;;;;;;56.20;24.15;;;17.50;69.60;;;;;;5096444;28;20031;-86
2022/11/04 02:29:28;;;;;;;50.78;25.02;;;16.50;73.70;;;;;;5100014;28;20035;-95
2022/11/04 02:32:18;;;;;;;49.00;23.85;;;16.50;74.50;;;;;;5096531;28;20034;-92
2022/11/04 02:35:08;;;;;;;53.85;24.92;;;17.20;72.60;;;;;;5098207;28;20031;-96
2022/11/04 02:37:45;;;;;;;55.20;25.70;;;17.50;71.00;;;;;;5097202;28;20023;-87
2022/11/04 02:40:43;;;;;;;51.90;25.05;;;17.30;70.90;;;;;;5096970;28;20118;-94
2022/11/04 02:43:08;;;;;;;51.10;24.10;;;16.60;73.30;;;;;;5035527;28;20029;-90
2022/11/04 02:45:44;;;;;;;52.92;24.33;;;16.40;74.20;;;;;;5035859;28;20482;-85
2022/11/04 02:48:44;;;;;;;49.05;24.52;;;16.50;73.90;;;;;;5035133;28;20029;-81
2022/11/04 02:51:32;;;;;;;48.65;23.98;;;16.40;72.60;;;;;;5036609;28;20071;-90
2022/11/04 02:54:09;;;;;;;47.33;24.05;;;16.60;72.50;;;;;;5034958;28;20021;-90
2022/11/04 02:56:41;;;;;;;54.00;24.08;;;16.10;73.80;;;;;;5035311;28;20033;-89
2022/11/04 02:59:32;;;;;;;58.65;25.17;;;15.90;75.30;;;;;;5051227;28;20029;-85
2022/11/04 03:02:02;;;;;;;51.03;26.52;;;15.50;75.80;;;;;;5039122;28;20041;-81
2022/11/04 03:04:33;;;;;;;52.00;25.90;;;15.50;76.60;;;;;;5026258;28;20025;-88
2022/11/04 03:07:00;;;;;;;52.17;26.17;;;15.60;76.00;;;;;;5039442;28;20044;-92
2022/11/04 03:09:29;;;;;;;59.92;26.58;;;15.90;75.90;;;;;;5021789;28;20022;-87
2022/11/04 03:12:03;;;;;;;52.20;25.15;;;16.30;74.00;;;;;;5021588;28;20091;-84
2022/11/04 03:14:40;;;;;;;52.08;26.52;;;15.60;75.40;;;;;;5021701;28;20040;-85
2022/11/04 03:17:12;;;;;;;58.88;27.45;;;15.40;76.20;;;;;;5038207;28;20067;-88
2022/11/04 03:19:57;;;;;;;54.92;26.38;;;15.20;77.90;;;;;;5064125;28;20042;-92
2022/11/04 03:22:26;;;;;;;61.38;26.55;;;15.10;77.20;;;;;;5100851;28;20404;-90
2022/11/04 03:24:53;;;;;;;56.42;27.90;;;15.60;76.60;;;;;;5100864;28;20534;-90
2022/11/04 03:27:37;;;;;;;61.38;26.80;;;16.00;75.30;;;;;;5099105;28;20483;-90
2022/11/04 03:30:07;;;;;;;62.53;26.92;;;16.30;73.90;;;;;;5105408;27;20479;-90
2022/11/04 03:32:46;;;;;;;54.00;26.27;;;16.70;72.00;;;;;;5109109;28;20024;-92
2022/11/04 03:35:14;;;;;;;61.80;26.92;;;16.50;73.60;;;;;;5111770;28;20041;-89
2022/11/04 03:37:41;;;;;;;58.83;27.95;;;16.20;73.50;;;;;;5102181;27;20027;-91
2022/11/04 03:40:07;;;;;;;58.53;28.17;;;16.10;74.00;;;;;;5120515;27;20632;-92
2022/11/04 03:42:43;;;;;;;52.85;25.77;;;16.60;73.00;;;;;;5107422;27;20106;-95
2022/11/04 03:45:11;;;;;;;53.63;25.95;;;17.20;71.10;;;;;;5119321;27;20050;-92
2022/11/04 03:47:37;;;;;;;55.58;25.85;;;17.50;69.80;;;;;;5118010;27;20027;-91
2022/11/04 03:50:27;;;;;;;55.70;26.63;;;17.50;69.10;;;;;;5128338;27;20039;-90
2022/11/04 03:52:54;;;;;;;55.65;26.35;;;17.50;69.30;;;;;;5102040;27;20019;-96
2022/11/04 03:55:29;;;;;;;55.13;27.38;;;17.20;70.10;;;;;;5132648;27;20030;-94
2022/11/04 03:58:11;;;;;;;54.10;26.17;;;17.10;70.70;;;;;;5099097;28;20019;-92
2022/11/04 04:00:52;;;;;;;50.33;25.10;;;16.70;71.40;;;;;;5098751;28;20092;-90
2022/11/04 04:03:23;;;;;;;;;;;16.60;70.90;;;;;;5099385;28;20122;-84
2022/11/04 04:06:06;;;;;;;58.28;26.02;;;16.30;71.90;;;;;;5099208;28;20287;-90
2022/11/04 04:08:47;;;;;;;56.45;26.08;;;16.20;72.30;;;;;;5098442;28;20027;-90
2022/11/04 04:11:20;;;;;;;53.33;24.30;;;16.00;72.80;;;;;;5100955;28;20122;-91
2022/11/04 04:14:01;;;;;;;52.42;25.20;;;16.20;73.20;;;;;;5108228;27;20015;-93
2022/11/04 04:16:48;;;;;;;48.05;24.25;;;16.80;70.60;;;;;;5115013;28;20027;-88
2022/11/04 04:19:19;;;;;;;52.80;25.63;;;16.90;70.10;;;;;;5098995;28;20020;-86
2022/11/04 04:21:51;;;;;;;57.00;26.02;;;16.60;70.70;;;;;;5099898;28;20169;-91
2022/11/04 04:29:50;;;;;;;52.53;25.40;;;16.60;70.90;;;;;;5119061;28;20084;-92
2022/11/04 04:32:19;;;;;;;53.65;25.55;;;16.80;70.90;;;;;;5101199;28;20386;-94
2022/11/04 04:34:44;;;;;;;47.85;25.40;;;17.30;69.90;;;;;;5099104;28;20024;-87
2022/11/04 04:37:25;;;;;;;52.80;25.63;;;17.70;67.60;;;;;;5099030;28;20031;-95
2022/11/04 04:44:58;;;;;;;48.38;24.77;;;17.10;69.30;;;;;;5116586;28;20165;-85
2022/11/04 04:45:49;;;;;;;48.97;25.48;;;16.70;70.40;;;;;;5118090;28;20454;-95
2022/11/04 04:48:16;;;;;;;57.05;27.48;;;16.60;71.50;;;;;;5099450;28;20031;-95
2022/11/04 04:50:47;;;;;;;50.28;25.63;;;16.60;71.40;;;;;;5098354;28;20028;-94
2022/11/04 04:53:14;;;;;;;54.03;26.30;;;16.20;72.20;;;;;;5083206;28;20024;-93
2022/11/04 04:55:40;;;;;;;52.38;26.10;;;15.40;74.60;;;;;;5100514;28;20080;-85
2022/11/04 04:58:05;;;;;;;58.35;26.27;;;15.40;74.20;;;;;;5104085;28;20027;-88
2022/11/04 05:00:32;;;;;;;57.97;27.90;;;15.30;74.50;;;;;;5100591;27;20015;-86
2022/11/04 05:02:58;;;;;;;55.28;25.75;;;15.60;74.70;;;;;;5098325;27;20177;-89
2022/11/04 05:05:24;;;;;;;51.85;25.58;;;16.10;72.00;;;;;;5120007;27;20492;-89
2022/11/04 05:07:50;;;;;;;49.50;25.55;;;15.90;72.60;;;;;;5114552;28;20032;-82
2022/11/04 05:10:17;;;;;;;51.22;26.20;;;15.80;72.60;;;;;;5128539;27;20168;-95
2022/11/04 05:15:28;;;;;;;51.47;25.15;;;15.60;73.20;;;;;;5132770;27;20042;-86
2022/11/04 05:17:55;;;;;;;54.35;26.55;;;15.30;74.90;;;;;;5118262;27;20371;-87
2022/11/04 05:20:21;;;;;;;59.20;27.10;;;15.40;75.30;;;;;;5096770;28;20118;-87
2022/11/04 05:22:47;;;;;;;57.35;26.92;;;16.20;72.80;;;;;;5116746;27;20065;-83
2022/11/04 05:25:13;;;;;;;56.05;27.15;;;16.30;71.10;;;;;;5117712;27;20045;-84
2022/11/04 05:27:38;;;;;;;54.10;27.02;;;15.80;73.40;;;;;;5113414;28;20032;-93
2022/11/04 05:30:05;;;;;;;54.45;28.02;;;15.70;73.80;;;;;;5136711;27;20019;-83
2022/11/04 05:32:30;;;;;;;54.63;28.20;;;16.00;71.90;;;;;;5113910;28;20031;-87
2022/11/04 05:34:56;;;;;;;58.13;27.52;;;15.80;73.30;;;;;;5097105;28;20034;-89
2022/11/04 05:37:22;;;;;;;54.05;27.60;;;15.70;73.10;;;;;;5097504;28;20028;-83
2022/11/04 05:39:48;;;;;;;54.15;26.30;;;15.30;75.40;;;;;;5103228;28;20034;-80
2022/11/04 05:42:16;;;;;;;57.13;25.33;;;15.40;74.10;;;;;;5130108;27;20027;-90
2022/11/04 05:44:42;;;;;;;56.75;26.98;;;14.90;75.60;;;;;;5112629;27;20108;-84
2022/11/04 05:47:08;;;;;;;50.80;24.63;;;14.60;76.40;;;;;;5116671;28;20023;-85
2022/11/04 05:49:34;;;;;;;50.50;24.83;;;14.30;77.10;;;;;;5116451;27;20107;-84
2022/11/04 05:51:59;;;;;;;46.20;24.05;;;14.00;78.10;;;;;;5112820;28;20387;-84
2022/11/04 05:54:25;;;;;;;49.55;24.75;;;14.40;77.30;;;;;;5114787;28;20600;-84
2022/11/04 05:56:54;;;;;;;50.40;24.48;;;14.30;77.10;;;;;;5116523;27;20030;-93
2022/11/04 05:59:20;;;;;;;53.55;25.70;;;14.40;77.30;;;;;;5116013;27;20110;-93
2022/11/04 06:01:45;;;;;;;45.60;22.95;;;14.40;77.30;;;;;;5108315;28;20181;-89
2022/11/04 06:04:18;;;;;;;47.58;23.95;;;14.40;77.10;;;;;;5099114;28;20063;-90
2022/11/04 06:06:44;;;;;;;52.22;23.85;;;14.20;77.10;;;;;;5098750;28;20173;-87
2022/11/04 06:09:11;;;;;;;48.00;23.45;;;14.10;78.10;;;;;;5096011;28;20021;-91
2022/11/04 06:11:37;;;;;;;48.60;24.67;;;14.40;78.00;;;;;;5107296;28;20036;-88
2022/11/04 06:14:04;;;;;;;51.95;26.20;;;14.80;76.10;;;;;;5093303;28;20024;-89
2022/11/04 06:16:30;;;;;;;52.35;23.50;;;14.80;76.00;;;;;;5107827;28;20050;-88
2022/11/04 06:18:56;;;;;;;52.58;24.60;;;14.80;76.10;;;;;;5114428;28;20161;-94
2022/11/04 06:21:24;;;;;;;52.80;25.08;;;15.00;75.90;;;;;;5113189;28;20118;-93
2022/11/04 06:23:52;;;;;;;50.63;24.50;;;15.30;75.70;;;;;;5112801;28;20030;-84
2022/11/04 06:26:18;;;;;;;51.13;24.95;;;16.00;72.80;;;;;;5113075;28;20031;-89
2022/11/04 06:28:43;;;;;;;53.55;25.25;;;15.80;73.20;;;;;;5113501;28;20024;-91
2022/11/04 06:31:12;;;;;;;51.90;25.35;;;15.90;72.80;;;;;;5115086;28;20515;-86
2022/11/04 06:33:37;;;;;;;55.65;25.73;;;16.10;72.40;;;;;;5098344;28;20016;-85
2022/11/04 06:36:05;;;;;;;52.45;25.73;;;15.90;73.50;;;;;;5093821;28;20468;-87
2022/11/04 06:38:36;;;;;;;54.78;26.15;;;16.10;71.70;;;;;;5093640;28;20050;-85
2022/11/04 06:41:03;;;;;;;56.42;26.23;;;15.90;71.80;;;;;;5098937;28;20047;-84
2022/11/04 06:43:29;;;;;;;50.92;26.10;;;15.60;72.60;;;;;;5098219;28;20020;-87
2022/11/04 06:45:56;;;;;;;55.50;25.65;;;15.10;74.40;;;;;;5096933;28;20024;-91
2022/11/04 06:48:24;;;;;;;62.95;27.65;;;15.00;74.70;;;;;;5097683;28;20417;-91
2022/11/04 06:50:50;;;;;;;65.28;28.08;;;15.40;74.60;;;;;;5110616;28;20035;-88
2022/11/04 06:53:15;;;;;;;60.45;27.63;;;16.00;73.40;;;;;;5096476;28;20388;-89
2022/11/04 06:55:41;;;;;;;56.65;26.90;;;16.20;71.90;;;;;;5110434;28;20040;-87
2022/11/04 06:58:08;;;;;;;52.42;25.95;;;16.10;72.20;;;;;;5112197;28;20027;-82
2022/11/04 07:00:34;;;;;;;58.17;26.85;;;15.70;72.80;;;;;;5113423;28;20034;-90
2022/11/04 07:02:59;;;;;;;56.80;27.17;;;15.50;74.70;;;;;;5100520;27;20032;-95
2022/11/04 07:05:25;;;;;;;52.65;26.48;;;16.20;72.40;;;;;;5102870;28;20031;-84
2022/11/04 07:07:51;;;;;;;61.58;26.70;;;16.60;70.60;;;;;;5099702;28;20468;-88
2022/11/04 07:10:16;;;;;;;51.15;25.60;;;16.90;69.80;;;;;;5110665;27;20491;-90
2022/11/04 07:12:43;;;;;;;54.25;25.73;;;16.70;70.10;;;;;;5118323;27;20124;-90
2022/11/04 07:15:09;;;;;;;56.20;26.70;;;16.60;70.10;;;;;;5098316;28;20114;-90
2022/11/04 07:17:35;;;;;;;54.78;26.63;;;16.80;69.50;;;;;;5124175;27;20101;-88
2022/11/04 07:20:02;;;;;;;53.90;26.23;;;16.70;70.80;;;;;;5119125;27;20550;-91
2022/11/04 07:22:27;;;;;;;51.90;25.70;;;16.10;71.90;;;;;;5119648;27;20034;-91
2022/11/04 07:24:53;;;;;;;57.55;25.60;;;15.90;72.30;;;;;;5101062;28;20027;-90
2022/11/04 07:27:18;;;;;;;51.33;25.15;;;15.70;73.50;;;;;;5098885;28;20468;-90
2022/11/04 07:29:44;;;;;;;53.90;25.27;;;15.80;73.60;;;;;;5125017;27;20526;-83
2022/11/04 07:32:10;;;;;;;59.83;26.58;;;15.90;72.90;;;;;;5119254;27;20442;-84
2022/11/04 07:34:36;;;;;;;61.47;34.47;;;15.50;74.70;;;;;;5117851;27;20693;-83
2022/11/04 07:37:01;;;;;;;53.15;25.92;;;15.70;72.50;;;;;;5119025;27;20053;-89
2022/11/04 07:39:27;;;;;;;51.47;26.10;;;15.40;74.10;;;;;;5119023;27;20035;-81
2022/11/04 07:41:53;;;;;;;55.97;25.42;;;14.70;76.70;;;;;;5118795;27;20098;-89
2022/11/04 07:44:21;;;;;;;58.17;25.88;;;14.70;77.00;;;;;;5119536;27;20054;-93
2022/11/04 07:46:47;;;;;;;56.33;27.27;;;15.30;76.20;;;;;;5118930;27;20114;-87
2022/11/04 07:49:13;;;;;;;51.85;25.23;;;15.60;73.60;;;;;;5113213;28;20114;-89
2022/11/04 07:51:39;;;;;;;52.40;26.00;;;15.60;73.20;;;;;;5111661;27;20039;-82
2022/11/04 07:54:04;;;;;;;56.28;26.25;;;15.40;73.70;;;;;;5118096;27;20023;-80
2022/11/04 07:56:30;;;;;;;51.78;25.63;;;15.60;74.30;;;;;;5118478;27;20490;-88
2022/11/04 07:58:56;;;;;;;56.50;25.05;;;15.70;73.50;;;;;;5100663;28;20511;-92
2022/11/04 08:01:22;;;;;;;54.63;25.63;;;15.80;73.10;;;;;;5106071;27;20042;-88
2022/11/04 08:03:49;;;;;;;52.60;25.98;;;16.00;72.70;;;;;;5119057;27;20118;-90
2022/11/04 08:06:16;;;;;;;51.90;26.02;;;16.20;72.40;;;;;;5118875;27;20030;-91
2022/11/04 08:08:42;;;;;;;69.53;40.28;;;16.20;71.20;;;;;;5118350;27;20027;-82
2022/11/04 08:11:11;;;;;;;57.47;27.35;;;15.90;72.00;;;;;;5117831;27;20035;-88
2022/11/04 08:13:37;;;;;;;61.92;27.92;;;15.20;74.10;;;;;;5118696;27;20088;-88
2022/11/04 08:16:05;;;;;;;61.33;27.92;;;14.90;76.30;;;;;;5126609;27;20058;-88
2022/11/04 08:18:32;;;;;;;59.17;26.13;;;14.60;76.50;;;;;;5118896;27;20019;-91
2022/11/04 08:20:58;;;;;;;60.15;26.42;;;14.80;76.30;;;;;;5118711;27;20054;-81
2022/11/04 08:23:24;;;;;;;56.40;27.13;;;15.10;75.00;;;;;;5118441;27;20015;-93
2022/11/04 08:25:50;;;;;;;58.55;27.27;;;15.00;75.50;;;;;;5118785;27;20076;-89
2022/11/04 08:28:18;;;;;;;61.38;27.70;;;15.00;75.10;;;;;;5119034;27;20035;-91
2022/11/04 08:30:57;;;;;;;59.03;28.10;;;14.70;77.00;;;;;;5118649;27;20126;-93
2022/11/04 08:33:25;;;;;;;62.25;29.40;;;14.40;77.50;;;;;;5112674;27;20495;-91
2022/11/04 08:35:52;;;;;;;55.50;27.10;;;14.40;78.10;;;;;;5119996;27;20500;-90
2022/11/04 08:38:18;;;;;;;61.95;27.95;;;14.80;76.20;;;;;;5118629;27;20437;-86
2022/11/04 08:40:45;;;;;;;61.28;29.92;;;15.10;75.60;;;;;;5117896;27;20508;-91
2022/11/04 08:43:11;;;;;;;66.72;30.52;;;15.50;75.70;;;;;;5118145;27;20023;-88
2022/11/04 08:45:42;;;;;;;63.63;30.38;;;15.90;73.10;;;;;;5109762;28;20045;-93
2022/11/04 08:48:12;;;;;;;65.00;30.77;;;15.70;73.30;;;;;;5101454;27;20508;-88
2022/11/04 08:50:38;;;;;;;66.70;31.00;;;15.60;73.20;;;;;;5097821;28;20433;-90
2022/11/04 08:53:04;;;;;;;70.55;34.20;;;15.70;73.70;;;;;;5111842;27;20030;-86
2022/11/04 08:55:31;;;;;;;64.85;33.45;;;16.00;71.80;;;;;;5118500;27;20031;-80
2022/11/04 08:57:58;;;;;;;69.45;35.25;;;15.60;72.90;;;;;;5112589;27;20031;-81
2022/11/04 09:00:24;;;;;;;57.40;29.67;;;15.40;74.70;;;;;;5098140;28;20422;-81
2022/11/04 09:02:50;;;;;;;72.28;33.55;;;15.00;74.00;;;;;;5119598;27;20040;-86
2022/11/04 09:05:16;;;;;;;69.47;34.45;;;15.00;75.10;;;;;;5132888;27;20099;-94
2022/11/04 09:07:42;;;;;;;62.90;28.98;;;15.00;74.40;;;;;;5117659;27;20097;-91
2022/11/04 09:10:09;;;;;;;71.78;37.88;;;15.10;75.00;;;;;;5116861;27;20030;-86
2022/11/04 09:12:35;;;;;;;65.28;34.65;;;15.80;73.00;;;;;;5100457;27;20039;-88
2022/11/04 09:15:04;;;;;;;58.03;31.33;;;16.30;70.70;;;;;;5114901;27;20019;-92
2022/11/04 09:17:30;;;;;;;57.97;30.58;;;16.20;70.70;;;;;;5114698;27;20122;-87
2022/11/04 09:19:56;;;;;;;60.88;30.75;;;16.20;71.20;;;;;;5117797;27;20110;-94
2022/11/04 09:22:23;;;;;;;59.70;29.60;;;16.00;72.00;;;;;;5118490;27;20110;-82
2022/11/04 09:24:48;;;;;;;54.42;28.23;;;16.20;71.50;;;;;;5116104;27;20023;-88
2022/11/04 09:27:14;;;;;;;55.85;29.40;;;16.40;70.90;;;;;;5117094;27;20044;-90
2022/11/04 09:29:40;;;;;;;61.05;29.17;;;16.50;70.40;;;;;;5118096;27;20096;-85
2022/11/04 09:32:07;;;;;;;62.78;29.77;;;16.70;69.30;;;;;;5116578;27;20031;-88
2022/11/04 09:34:32;;;;;;;53.05;29.15;;;16.40;70.50;;;;;;5115539;27;20016;-91
2022/11/04 09:36:58;;;;;;;54.53;29.48;;;16.90;69.30;;;;;;5115953;27;20041;-95
2022/11/04 09:39:25;;;;;;;52.85;28.17;;;17.20;68.30;;;;;;5113135;27;20020;-91
2022/11/04 09:41:59;;;;;;;54.83;29.58;;;17.00;68.70;;;;;;5134459;27;20042;-94
2022/11/04 09:44:25;;;;;;;63.67;30.08;;;16.50;69.30;;;;;;5115614;27;20106;-92
2022/11/04 09:46:57;;;;;;;56.05;29.80;;;16.40;70.70;;;;;;5115849;27;20156;-94
2022/11/04 09:49:26;;;;;;;59.50;28.90;;;17.10;68.70;;;;;;5116101;27;20023;-92
2022/11/04 09:51:53;;;;;;;62.60;31.60;;;16.90;68.40;;;;;;5116246;27;20554;-89
2022/11/04 09:54:25;;;;;;;65.15;32.60;;;16.50;70.90;;;;;;5116086;27;20504;-89
2022/11/04 09:56:52;;;;;;;64.63;32.13;;;16.20;72.20;;;;;;5111846;27;20027;-86
2022/11/04 09:59:36;;;;;;;64.78;33.22;;;16.20;73.10;;;;;;5115294;27;20019;-87
2022/11/04 10:02:04;;;;;;;62.05;30.98;;;16.50;72.00;;;;;;5112333;27;20039;-85
2022/11/04 10:05:02;;;;;;;74.72;34.75;;;16.40;72.60;;;;;;5116807;28;20015;-86
2022/11/04 10:07:49;;;;;;;68.43;33.95;;;16.80;70.90;;;;;;5134790;27;20098;-87
2022/11/04 10:10:41;;;;;;;76.00;35.10;;;16.50;71.70;;;;;;5116279;27;20026;-86
2022/11/04 10:13:26;;;;;;;69.30;34.22;;;16.90;71.00;;;;;;5116006;27;20058;-84
2022/11/04 10:16:01;;;;;;;62.47;31.80;;;16.60;70.50;;;;;;5116162;28;20061;-81
2022/11/04 10:18:45;;;;;;;65.68;33.40;;;15.80;72.50;;;;;;5116120;28;20079;-83
2022/11/04 10:21:35;;;;;;;69.72;34.53;;;15.60;73.90;;;;;;5116149;28;20508;-88
2022/11/04 10:24:27;;;;;;;76.75;34.67;;;15.00;76.10;;;;;;5115916;28;20042;-86
2022/11/04 10:27:00;;;;;;;83.90;36.78;;;15.00;76.80;;;;;;5111096;28;20117;-79
2022/11/04 10:29:39;;;;;;;70.68;35.20;;;15.20;75.50;;;;;;5134193;28;20076;-87
2022/11/04 10:32:23;;;;;;;68.30;33.40;;;15.20;76.00;;;;;;5116041;28;20039;-83
2022/11/04 10:34:51;;;;;;;79.55;38.05;;;15.30;75.50;;;;;;5116404;28;20023;-83
2022/11/04 10:37:17;;;;;;;75.50;35.75;;;14.90;77.30;;;;;;5115782;28;20023;-85
2022/11/04 10:39:45;;;;;;;74.07;35.60;;;15.30;76.50;;;;;;5115746;28;20102;-84
2022/11/04 10:42:17;;;;;;;70.28;35.92;;;15.10;77.20;;;;;;5115803;28;20084;-83
2022/11/04 10:44:45;;;;;;;70.55;35.50;;;15.40;75.40;;;;;;5116097;28;20030;-84
2022/11/04 10:47:45;;;;;;;75.60;33.63;;;15.50;75.30;;;;;;5115497;28;20050;-88
2022/11/04 10:50:24;;;;;;;69.30;34.90;;;15.20;76.00;;;;;;5115538;28;20030;-86
2022/11/04 10:52:53;;;;;;;73.93;36.35;;;15.20;77.00;;;;;;5134164;28;20015;-86
2022/11/04 10:55:38;;;;;;;72.35;36.55;;;15.70;74.70;;;;;;5115758;28;20077;-86
2022/11/04 10:58:17;;;;;;;81.45;36.63;;;16.10;74.50;;;;;;5134138;28;20055;-85
2022/11/04 11:00:42;;;;;;;75.35;37.50;;;16.40;73.40;;;;;;5133309;28;20027;-85
2022/11/04 11:03:46;;;;;;;72.85;36.60;;;16.80;72.20;;;;;;5134194;28;20475;-85
2022/11/04 11:06:14;;;;;;;73.10;37.30;;;17.40;69.80;;;;;;5030917;28;20029;-91
2022/11/04 11:08:41;;;;;;;70.65;35.55;;;17.70;69.00;;;;;;5014296;28;20022;-87
2022/11/04 11:11:07;;;;;;;73.22;35.97;;;17.00;70.20;;;;;;5014102;28;20037;-86
2022/11/04 11:13:40;;;;;;;77.28;36.38;;;17.00;71.10;;;;;;5014383;28;20033;-86
2022/11/04 11:16:10;;;;;;;75.75;37.70;;;17.20;70.40;;;;;;5014478;28;20022;-85
2022/11/04 11:18:37;;;;;;;74.32;35.92;;;17.50;70.30;;;;;;5014131;28;20037;-84
2022/11/04 11:21:20;;;;;;;70.70;35.60;;;17.70;68.50;;;;;;5014155;28;20052;-87
2022/11/04 11:23:48;;;;;;;78.65;37.70;;;17.40;69.90;;;;;;5014281;28;20470;-85
2022/11/04 11:26:18;;;;;;;68.90;35.72;;;17.10;70.80;;;;;;5015754;28;20025;-86
2022/11/04 11:28:55;;;;;;;80.85;38.50;;;17.60;69.50;;;;;;5017694;28;20112;-86
2022/11/04 11:31:23;;;;;;;74.57;36.03;;;18.00;68.10;;;;;;5017680;28;20057;-83
2022/11/04 11:33:54;;;;;;;71.32;36.13;;;18.30;67.60;;;;;;5017496;28;20027;-83
2022/11/04 11:36:28;;;;;;;78.00;37.35;;;18.60;66.80;;;;;;5060422;27;20042;-83
2022/11/04 11:39:02;;;;;;;70.32;36.22;;;18.70;66.00;;;;;;5118825;27;20128;-84
2022/11/04 11:41:33;;;;;;;86.72;38.67;;;18.80;66.00;;;;;;5118860;27;20356;-83
2022/11/04 11:44:31;;;;;;;80.50;37.53;;;18.70;65.90;;;;;;5118762;27;20026;-84
2022/11/04 11:47:06;;;;;;;76.32;37.50;;;18.70;65.60;;;;;;5111969;27;20030;-82
2022/11/04 11:49:36;;;;;;;75.35;35.80;;;18.40;66.50;;;;;;5118571;27;20028;-83
2022/11/04 11:52:21;;;;;;;79.28;38.42;;;18.50;66.50;;;;;;5118144;27;20068;-79
2022/11/04 11:54:51;;;;;;;85.00;40.10;;;18.70;66.10;;;;;;5118438;27;20042;-84
2022/11/04 11:57:43;;;;;;;71.03;37.38;;;18.80;65.80;;;;;;5118333;27;20019;-84
2022/11/04 12:00:14;;;;;;;81.30;37.38;;;19.00;65.30;;;;;;5118332;27;20031;-83
2022/11/04 12:03:01;;;;;;;78.28;37.20;;;19.10;65.00;;;;;;5118385;27;20094;-84
2022/11/04 12:05:38;;;;;;;77.38;37.80;;;19.20;64.60;;;;;;5118236;27;20027;-83
2022/11/04 12:08:26;;;;;;;72.53;37.40;;;19.10;65.00;;;;;;5118087;27;20023;-83
2022/11/04 12:11:05;;;;;;;78.43;38.10;;;19.20;65.00;;;;;;5118098;27;20035;-82
2022/11/04 12:13:55;;;;;;;69.13;36.35;;;19.30;64.70;;;;;;5135925;27;20019;-79
2022/11/04 12:16:42;;;;;;;78.35;37.15;;;19.30;64.70;;;;;;5117615;27;20027;-91
2022/11/04 12:19:40;;;;;;;71.50;37.47;;;19.40;64.50;;;;;;5118027;27;20077;-83
2022/11/04 12:22:30;;;;;;;77.55;38.25;;;19.20;64.90;;;;;;5118021;27;20031;-83
2022/11/04 12:25:17;;;;;;;72.15;37.85;;;19.10;65.00;;;;;;5136178;27;20023;-82
2022/11/04 12:28:01;;;;;;;72.60;37.00;;;19.10;64.90;;;;;;5117821;27;20031;-84
2022/11/04 12:30:33;;;;;;;71.93;36.17;;;19.20;64.90;;;;;;5117768;27;20043;-83
2022/11/04 12:33:21;;;;;;;76.57;38.47;;;19.10;65.20;;;;;;5117787;27;20023;-85
2022/11/04 12:36:02;;;;;;;72.80;38.67;;;18.80;65.10;;;;;;5117518;27;20061;-82
2022/11/04 12:38:45;;;;;;;79.28;39.95;;;18.80;65.50;;;;;;5117362;27;20429;-83
2022/11/04 12:41:11;;;;;;;80.93;39.55;;;18.90;65.30;;;;;;5136047;27;20106;-83
2022/11/04 12:43:41;;;;;;;69.65;38.00;;;18.90;65.10;;;;;;5117474;27;20127;-83
2022/11/04 12:46:21;;;;;;;69.63;37.90;;;18.90;64.90;;;;;;5135638;27;20058;-85
2022/11/04 12:48:59;;;;;;;;;;;18.90;65.50;;;;;;5117666;27;20015;-84
2022/11/04 12:51:49;;;;;;;74.63;39.33;;;18.90;65.80;;;;;;5135556;27;19915;-83
2022/11/04 12:54:24;;;;;;;76.03;39.10;;;19.10;65.30;;;;;;5117240;27;20065;-83
2022/11/04 12:57:18;;;;;;;73.65;39.28;;;19.20;65.40;;;;;;5135517;27;20023;-83
2022/11/04 12:59:44;;;;;;;65.60;36.50;;;19.40;64.60;;;;;;5117192;27;20066;-82
2022/11/04 13:02:25;;;;;;;72.65;37.90;;;19.50;64.10;;;;;;5135480;27;20070;-83
2022/11/04 13:05:12;;;;;;;78.53;40.28;;;19.50;64.70;;;;;;5117139;27;20020;-83
2022/11/04 13:08:17;;;;;;;72.50;39.60;;;19.60;63.90;;;;;;5135260;27;20027;-84
2022/11/04 13:10:47;;;;;;;74.35;40.35;;;19.80;63.90;;;;;;5116950;27;20023;-82
2022/11/04 13:13:15;;;;;;;80.90;41.00;;;19.70;63.70;;;;;;5117113;27;20023;-83
2022/11/04 13:15:48;;;;;;;75.88;38.70;;;19.50;64.20;;;;;;5116925;27;20087;-83
2022/11/04 13:18:18;;;;;;;82.65;40.60;;;19.50;64.30;;;;;;5116961;27;20424;-84
2022/11/04 13:21:00;;;;;;;76.57;40.05;;;19.50;64.60;;;;;;5116966;27;20046;-85
2022/11/04 13:23:49;;;;;;;78.88;37.72;;;19.40;64.40;;;;;;5099968;27;20034;-84